createdAt,value
2023-10-30T00:00:59.415Z,0.00
2023-10-30T00:01:59.380Z,0.00
2023-10-30T00:02:59.429Z,0.00
2023-10-30T00:03:59.386Z,0.00
2023-10-30T00:04:59.301Z,0.00
2023-10-30T00:05:59.362Z,0.00
2023-10-30T00:06:59.279Z,0.00
2023-10-30T00:07:59.259Z,0.00
2023-10-30T00:08:59.319Z,0.00
2023-10-30T00:09:59.256Z,0.00
2023-10-30T00:10:59.632Z,0.00
2023-10-30T00:11:59.298Z,0.00
2023-10-30T00:12:59.225Z,0.00
2023-10-30T00:13:59.186Z,0.00
2023-10-30T00:14:59.221Z,0.00
2023-10-30T00:15:59.169Z,0.00
2023-10-30T00:16:59.206Z,0.00
2023-10-30T00:17:59.201Z,0.00
2023-10-30T00:18:59.145Z,0.00
2023-10-30T00:19:59.150Z,0.00
2023-10-30T00:20:59.244Z,0.00
2023-10-30T00:21:59.106Z,0.00
2023-10-30T00:22:59.149Z,0.00
2023-10-30T00:23:59.127Z,0.00
2023-10-30T00:24:59.110Z,0.00
2023-10-30T00:25:59.079Z,0.00
2023-10-30T00:26:59.114Z,0.00
2023-10-30T00:27:59.054Z,0.00
2023-10-30T00:28:59.060Z,0.00
2023-10-30T00:29:59.046Z,0.00
2023-10-30T00:30:59.040Z,0.00
2023-10-30T00:31:59.006Z,0.00
2023-10-30T00:32:59.030Z,0.00
2023-10-30T00:33:59.002Z,0.00
2023-10-30T00:34:58.975Z,0.00
2023-10-30T00:35:58.957Z,0.00
2023-10-30T00:36:58.968Z,0.00
2023-10-30T00:37:59.021Z,0.00
2023-10-30T00:38:58.987Z,0.00
2023-10-30T00:39:58.918Z,0.00
2023-10-30T00:40:58.931Z,0.00
2023-10-30T00:41:58.889Z,0.00
2023-10-30T00:42:58.980Z,0.00
2023-10-30T00:43:58.880Z,0.00
2023-10-30T00:44:58.865Z,0.00
2023-10-30T00:45:58.865Z,0.00
2023-10-30T00:46:58.846Z,0.00
2023-10-30T00:47:58.966Z,0.00
2023-10-30T00:48:58.840Z,0.00
2023-10-30T00:49:58.817Z,0.00
2023-10-30T00:50:58.806Z,0.00
2023-10-30T00:51:58.857Z,0.00
2023-10-30T00:52:58.799Z,0.00
2023-10-30T00:53:58.764Z,0.00
2023-10-30T00:54:58.802Z,0.00
2023-10-30T00:55:58.750Z,0.00
2023-10-30T00:56:58.762Z,0.00
2023-10-30T00:57:58.729Z,0.00
2023-10-30T00:58:58.722Z,0.00
2023-10-30T00:59:58.706Z,0.00
2023-10-30T01:00:58.764Z,0.00
2023-10-30T01:01:58.906Z,0.00
2023-10-30T01:02:58.833Z,0.00
2023-10-30T01:03:58.762Z,0.00
2023-10-30T01:04:59.029Z,0.00
2023-10-30T01:05:58.688Z,0.00
2023-10-30T01:06:58.679Z,0.00
2023-10-30T01:07:58.611Z,0.00
2023-10-30T01:08:58.615Z,0.00
2023-10-30T01:09:58.609Z,0.00
2023-10-30T01:10:58.653Z,0.00
2023-10-30T01:11:58.570Z,0.00
2023-10-30T01:12:58.577Z,0.00
2023-10-30T01:13:58.563Z,0.00
2023-10-30T01:14:58.557Z,0.00
2023-10-30T01:15:58.562Z,0.00
2023-10-30T01:16:58.535Z,0.00
2023-10-30T01:17:58.541Z,0.00
2023-10-30T01:18:58.526Z,0.00
2023-10-30T01:19:58.515Z,0.00
2023-10-30T01:20:58.505Z,0.00
2023-10-30T01:21:58.476Z,0.00
2023-10-30T01:22:58.458Z,0.00
2023-10-30T01:23:58.454Z,0.00
2023-10-30T01:24:58.468Z,0.00
2023-10-30T01:25:58.419Z,0.00
2023-10-30T01:26:58.420Z,0.00
2023-10-30T01:27:58.409Z,0.00
2023-10-30T01:28:58.397Z,0.00
2023-10-30T01:29:58.430Z,0.00
2023-10-30T01:30:58.376Z,0.00
2023-10-30T01:31:58.358Z,0.00
2023-10-30T01:32:58.392Z,0.00
2023-10-30T01:33:58.491Z,0.00
2023-10-30T01:34:58.367Z,0.00
2023-10-30T01:35:58.327Z,0.00
2023-10-30T01:36:58.309Z,0.00
2023-10-30T01:37:58.305Z,0.00
2023-10-30T01:38:58.322Z,0.00
2023-10-30T01:39:58.279Z,0.00
2023-10-30T01:40:58.268Z,0.00
2023-10-30T01:41:58.265Z,0.00
2023-10-30T01:42:58.287Z,0.00
2023-10-30T01:43:58.270Z,0.00
2023-10-30T01:44:58.257Z,0.00
2023-10-30T01:45:58.219Z,0.00
2023-10-30T01:46:58.215Z,0.00
2023-10-30T01:47:58.211Z,0.00
2023-10-30T01:48:58.217Z,0.00
2023-10-30T01:49:58.218Z,0.00
2023-10-30T01:50:58.189Z,0.00
2023-10-30T01:51:58.152Z,0.00
2023-10-30T01:52:58.169Z,0.00
2023-10-30T01:53:58.159Z,0.00
2023-10-30T01:54:58.126Z,0.00
2023-10-30T01:55:58.113Z,0.00
2023-10-30T01:56:58.104Z,0.00
2023-10-30T01:57:58.113Z,0.00
2023-10-30T01:58:58.077Z,0.00
2023-10-30T01:59:58.078Z,0.00
2023-10-30T02:00:58.099Z,0.00
2023-10-30T02:01:58.062Z,0.00
2023-10-30T02:02:58.188Z,0.00
2023-10-30T02:03:58.079Z,0.00
2023-10-30T02:04:58.018Z,0.00
2023-10-30T02:05:58.017Z,0.00
2023-10-30T02:06:58.014Z,0.00
2023-10-30T02:07:57.979Z,0.00
2023-10-30T02:08:58.004Z,0.00
2023-10-30T02:09:58.007Z,0.00
2023-10-30T02:10:57.957Z,0.00
2023-10-30T02:11:57.956Z,0.00
2023-10-30T02:12:57.931Z,0.00
2023-10-30T02:13:57.981Z,0.00
2023-10-30T02:14:57.944Z,0.00
2023-10-30T02:15:57.943Z,0.00
2023-10-30T02:16:57.904Z,0.00
2023-10-30T02:17:57.883Z,0.00
2023-10-30T02:18:57.867Z,0.00
2023-10-30T02:19:57.855Z,0.00
2023-10-30T02:20:57.862Z,0.00
2023-10-30T02:21:57.837Z,0.00
2023-10-30T02:22:57.830Z,0.00
2023-10-30T02:23:57.816Z,0.00
2023-10-30T02:24:57.803Z,0.00
2023-10-30T02:25:57.809Z,0.00
2023-10-30T02:26:57.843Z,0.00
2023-10-30T02:27:57.768Z,0.00
2023-10-30T02:28:57.782Z,0.00
2023-10-30T02:29:57.834Z,0.00
2023-10-30T02:30:57.787Z,0.00
2023-10-30T02:31:57.766Z,0.00
2023-10-30T02:32:57.768Z,0.00
2023-10-30T02:33:57.790Z,0.00
2023-10-30T02:34:57.710Z,0.00
2023-10-30T02:35:57.702Z,0.00
2023-10-30T02:36:57.675Z,0.00
2023-10-30T02:37:57.689Z,0.00
2023-10-30T02:38:57.656Z,0.00
2023-10-30T02:39:57.663Z,0.00
2023-10-30T02:40:57.683Z,0.00
2023-10-30T02:41:57.615Z,0.00
2023-10-30T02:42:57.625Z,0.00
2023-10-30T02:43:57.618Z,0.00
2023-10-30T02:44:57.629Z,0.00
2023-10-30T02:45:57.719Z,0.00
2023-10-30T02:46:57.577Z,0.00
2023-10-30T02:47:57.572Z,0.00
2023-10-30T02:48:57.596Z,0.00
2023-10-30T02:49:57.552Z,0.00
2023-10-30T02:50:57.518Z,0.00
2023-10-30T02:51:57.522Z,0.00
2023-10-30T02:52:57.515Z,0.00
2023-10-30T02:53:57.511Z,0.00
2023-10-30T02:54:57.491Z,0.00
2023-10-30T02:55:57.512Z,0.00
2023-10-30T02:56:57.496Z,0.00
2023-10-30T02:57:57.470Z,0.00
2023-10-30T02:58:57.462Z,0.00
2023-10-30T02:59:57.424Z,0.00
2023-10-30T03:00:57.414Z,0.00
2023-10-30T03:01:57.403Z,0.00
2023-10-30T03:02:57.616Z,0.00
2023-10-30T03:03:57.607Z,0.00
2023-10-30T03:04:57.520Z,0.00
2023-10-30T03:05:57.356Z,0.00
2023-10-30T03:06:57.360Z,0.00
2023-10-30T03:07:57.358Z,0.00
2023-10-30T03:08:57.334Z,0.00
2023-10-30T03:09:57.317Z,0.00
2023-10-30T03:10:57.320Z,0.00
2023-10-30T03:11:57.356Z,0.00
2023-10-30T03:12:57.325Z,0.00
2023-10-30T03:13:57.280Z,0.00
2023-10-30T03:14:57.340Z,0.00
2023-10-30T03:15:57.419Z,0.00
2023-10-30T03:16:57.262Z,0.00
2023-10-30T03:17:57.343Z,0.00
2023-10-30T03:18:57.233Z,0.00
2023-10-30T03:19:57.219Z,0.00
2023-10-30T03:20:57.204Z,0.00
2023-10-30T03:21:57.229Z,0.00
2023-10-30T03:22:57.215Z,0.00
2023-10-30T03:23:57.172Z,0.00
2023-10-30T03:24:57.163Z,0.00
2023-10-30T03:25:57.181Z,0.00
2023-10-30T03:26:57.171Z,0.00
2023-10-30T03:27:57.132Z,0.00
2023-10-30T03:28:57.125Z,0.00
2023-10-30T03:29:57.102Z,0.00
2023-10-30T03:30:57.123Z,0.00
2023-10-30T03:31:57.073Z,0.00
2023-10-30T03:32:57.171Z,0.00
2023-10-30T03:33:57.132Z,0.00
2023-10-30T03:34:57.054Z,0.00
2023-10-30T03:35:57.056Z,0.00
2023-10-30T03:36:57.044Z,0.00
2023-10-30T03:37:57.040Z,0.00
2023-10-30T03:38:57.009Z,0.00
2023-10-30T03:39:57.027Z,0.00
2023-10-30T03:40:57.002Z,0.00
2023-10-30T03:41:56.983Z,0.00
2023-10-30T03:42:56.998Z,0.00
2023-10-30T03:43:56.964Z,0.00
2023-10-30T03:44:56.966Z,0.00
2023-10-30T03:45:57.045Z,0.00
2023-10-30T03:46:56.920Z,0.00
2023-10-30T03:47:56.935Z,0.00
2023-10-30T03:48:56.952Z,0.00
2023-10-30T03:49:56.904Z,0.00
2023-10-30T03:50:56.885Z,0.00
2023-10-30T03:51:56.884Z,0.00
2023-10-30T03:52:56.860Z,0.00
2023-10-30T03:53:56.872Z,0.00
2023-10-30T03:54:56.890Z,0.00
2023-10-30T03:55:56.824Z,0.00
2023-10-30T03:56:56.819Z,0.00
2023-10-30T03:57:56.830Z,0.00
2023-10-30T03:58:56.832Z,0.00
2023-10-30T03:59:56.790Z,0.00
2023-10-30T04:00:56.775Z,0.00
2023-10-30T04:01:56.772Z,0.00
2023-10-30T04:02:56.766Z,0.00
2023-10-30T04:03:56.811Z,0.00
2023-10-30T04:04:56.744Z,0.00
2023-10-30T04:05:56.719Z,0.00
2023-10-30T04:06:56.704Z,0.00
2023-10-30T04:07:56.732Z,0.00
2023-10-30T04:08:56.706Z,0.00
2023-10-30T04:09:56.689Z,0.00
2023-10-30T04:10:56.660Z,0.00
2023-10-30T04:11:56.661Z,0.00
2023-10-30T04:12:56.658Z,0.00
2023-10-30T04:13:56.641Z,0.00
2023-10-30T04:14:56.619Z,0.00
2023-10-30T04:15:56.624Z,0.00
2023-10-30T04:16:56.599Z,0.00
2023-10-30T04:17:56.649Z,0.00
2023-10-30T04:18:56.577Z,0.00
2023-10-30T04:19:56.572Z,0.00
2023-10-30T04:20:56.606Z,0.00
2023-10-30T04:21:56.639Z,0.00
2023-10-30T04:22:56.658Z,0.00
2023-10-30T04:23:56.529Z,0.00
2023-10-30T04:24:56.564Z,0.00
2023-10-30T04:25:56.517Z,0.00
2023-10-30T04:26:56.535Z,0.00
2023-10-30T04:27:56.504Z,0.00
2023-10-30T04:28:56.478Z,0.00
2023-10-30T04:29:56.484Z,0.00
2023-10-30T04:30:56.460Z,0.00
2023-10-30T04:31:56.550Z,0.00
2023-10-30T04:32:56.443Z,0.00
2023-10-30T04:33:56.423Z,0.00
2023-10-30T04:34:56.410Z,0.00
2023-10-30T04:35:56.429Z,0.00
2023-10-30T04:36:56.408Z,0.00
2023-10-30T04:37:56.417Z,0.00
2023-10-30T04:38:56.373Z,0.00
2023-10-30T04:39:56.399Z,0.00
2023-10-30T04:40:56.367Z,0.00
2023-10-30T04:41:56.359Z,0.00
2023-10-30T04:42:56.333Z,0.00
2023-10-30T04:43:56.331Z,0.00
2023-10-30T04:44:56.303Z,0.00
2023-10-30T04:45:56.363Z,0.00
2023-10-30T04:46:56.291Z,0.00
2023-10-30T04:47:56.282Z,0.00
2023-10-30T04:48:56.257Z,0.00
2023-10-30T04:49:56.287Z,0.00
2023-10-30T04:50:56.293Z,0.00
2023-10-30T04:51:56.252Z,0.00
2023-10-30T04:52:56.223Z,0.00
2023-10-30T04:53:56.209Z,0.00
2023-10-30T04:54:56.467Z,0.00
2023-10-30T04:55:56.190Z,0.00
2023-10-30T04:56:56.179Z,0.00
2023-10-30T04:57:56.163Z,0.00
2023-10-30T04:58:56.159Z,0.00
2023-10-30T04:59:56.160Z,0.00
2023-10-30T05:00:56.133Z,0.00
2023-10-30T05:01:56.212Z,0.00
2023-10-30T05:02:56.171Z,0.00
2023-10-30T05:03:56.260Z,0.00
2023-10-30T05:04:56.122Z,0.00
2023-10-30T05:05:56.096Z,0.00
2023-10-30T05:06:56.067Z,0.00
2023-10-30T05:07:56.070Z,0.00
2023-10-30T05:08:56.073Z,0.00
2023-10-30T05:09:56.086Z,0.00
2023-10-30T05:10:56.051Z,0.00
2023-10-30T05:11:56.040Z,0.00
2023-10-30T05:12:56.002Z,0.00
2023-10-30T05:13:56.071Z,0.00
2023-10-30T05:14:56.569Z,0.00
2023-10-30T05:15:56.102Z,0.00
2023-10-30T05:16:55.965Z,0.00
2023-10-30T05:17:56.039Z,0.00
2023-10-30T05:18:55.958Z,0.00
2023-10-30T05:19:55.963Z,0.00
2023-10-30T05:20:55.918Z,0.00
2023-10-30T05:21:55.929Z,0.00
2023-10-30T05:22:55.995Z,0.00
2023-10-30T05:23:55.901Z,0.00
2023-10-30T05:24:55.874Z,0.00
2023-10-30T05:25:55.898Z,0.00
2023-10-30T05:26:55.862Z,0.00
2023-10-30T05:27:56.000Z,0.00
2023-10-30T05:28:55.841Z,0.00
2023-10-30T05:29:55.865Z,0.00
2023-10-30T05:30:55.912Z,0.00
2023-10-30T05:31:56.472Z,0.00
2023-10-30T05:32:55.831Z,0.00
2023-10-30T05:33:55.837Z,0.00
2023-10-30T05:34:55.810Z,0.00
2023-10-30T05:35:55.764Z,0.00
2023-10-30T05:36:55.809Z,0.00
2023-10-30T05:37:55.758Z,0.00
2023-10-30T05:38:55.740Z,0.00
2023-10-30T05:39:55.816Z,0.00
2023-10-30T05:40:55.703Z,0.00
2023-10-30T05:41:55.729Z,0.00
2023-10-30T05:42:55.713Z,0.00
2023-10-30T05:43:55.679Z,0.00
2023-10-30T05:44:55.679Z,0.00
2023-10-30T05:45:55.920Z,0.00
2023-10-30T05:46:55.677Z,0.00
2023-10-30T05:47:55.721Z,0.00
2023-10-30T05:48:55.575Z,0.00
2023-10-30T05:49:57.416Z,0.00
2023-10-30T05:50:55.607Z,0.00
2023-10-30T05:51:55.606Z,0.00
2023-10-30T05:52:55.571Z,0.00
2023-10-30T05:53:55.523Z,0.00
2023-10-30T05:54:55.552Z,0.00
2023-10-30T05:55:55.612Z,0.00
2023-10-30T05:56:55.638Z,0.00
2023-10-30T05:57:55.637Z,0.00
2023-10-30T05:58:55.550Z,0.00
2023-10-30T05:59:55.573Z,0.00
2023-10-30T06:00:55.599Z,0.00
2023-10-30T06:01:55.620Z,0.00
2023-10-30T06:02:55.431Z,0.00
2023-10-30T06:03:55.459Z,0.00
2023-10-30T06:04:55.687Z,0.00
2023-10-30T06:05:55.423Z,0.00
2023-10-30T06:06:55.496Z,0.00
2023-10-30T06:07:55.363Z,0.00
2023-10-30T06:08:55.468Z,0.00
2023-10-30T06:09:55.400Z,0.00
2023-10-30T06:10:55.334Z,0.00
2023-10-30T06:11:55.331Z,0.00
2023-10-30T06:12:55.308Z,0.00
2023-10-30T06:13:55.460Z,0.00
2023-10-30T06:14:55.340Z,0.00
2023-10-30T06:15:55.339Z,0.00
2023-10-30T06:16:55.264Z,0.00
2023-10-30T06:17:55.316Z,0.00
2023-10-30T06:18:55.287Z,0.00
2023-10-30T06:19:55.245Z,0.00
2023-10-30T06:20:55.246Z,0.00
2023-10-30T06:21:55.277Z,0.00
2023-10-30T06:22:55.212Z,0.00
2023-10-30T06:23:55.215Z,0.00
2023-10-30T06:24:55.228Z,0.00
2023-10-30T06:25:55.183Z,0.00
2023-10-30T06:26:55.168Z,0.00
2023-10-30T06:27:55.213Z,0.00
2023-10-30T06:28:55.161Z,0.00
2023-10-30T06:29:55.143Z,0.00
2023-10-30T06:30:55.180Z,0.00
2023-10-30T06:31:55.129Z,0.00
2023-10-30T06:32:55.205Z,0.00
2023-10-30T06:33:55.124Z,0.00
2023-10-30T06:34:55.095Z,0.00
2023-10-30T06:35:55.067Z,0.00
2023-10-30T06:36:55.148Z,0.00
2023-10-30T06:37:55.090Z,0.00
2023-10-30T06:38:55.047Z,0.00
2023-10-30T06:39:55.066Z,0.00
2023-10-30T06:40:55.007Z,0.00
2023-10-30T06:41:55.035Z,0.00
2023-10-30T06:42:55.043Z,0.00
2023-10-30T06:43:55.002Z,0.00
2023-10-30T06:44:54.987Z,0.00
2023-10-30T06:45:55.009Z,0.00
2023-10-30T06:46:57.517Z,0.00
2023-10-30T06:47:55.038Z,0.00
2023-10-30T06:48:54.970Z,0.00
2023-10-30T06:49:54.916Z,0.00
2023-10-30T06:50:54.906Z,0.00
2023-10-30T06:51:54.990Z,0.00
2023-10-30T06:52:54.888Z,0.00
2023-10-30T06:53:54.886Z,0.00
2023-10-30T06:54:54.897Z,0.00
2023-10-30T06:55:54.871Z,0.00
2023-10-30T06:56:54.864Z,0.00
2023-10-30T06:57:54.855Z,0.00
2023-10-30T06:58:54.819Z,0.00
2023-10-30T06:59:54.819Z,0.00
2023-10-30T07:00:54.867Z,0.00
2023-10-30T07:01:54.809Z,0.00
2023-10-30T07:02:54.934Z,0.00
2023-10-30T07:03:54.830Z,0.00
2023-10-30T07:04:54.762Z,0.00
2023-10-30T07:05:54.774Z,0.00
2023-10-30T07:06:54.779Z,0.00
2023-10-30T07:07:54.746Z,0.00
2023-10-30T07:08:54.721Z,0.00
2023-10-30T07:09:54.797Z,0.00
2023-10-30T07:10:54.716Z,0.00
2023-10-30T07:11:54.688Z,0.00
2023-10-30T07:12:54.670Z,0.00
2023-10-30T07:13:54.670Z,0.00
2023-10-30T07:14:56.732Z,0.00
2023-10-30T07:15:54.694Z,0.00
2023-10-30T07:17:04.238Z,0.00
2023-10-30T07:17:54.653Z,0.00
2023-10-30T07:18:54.669Z,0.00
2023-10-30T07:19:54.610Z,0.00
2023-10-30T07:20:54.587Z,0.00
2023-10-30T07:21:54.628Z,0.00
2023-10-30T07:22:54.596Z,0.00
2023-10-30T07:23:54.577Z,0.00
2023-10-30T07:24:54.616Z,0.00
2023-10-30T07:25:54.529Z,0.00
2023-10-30T07:26:54.538Z,0.00
2023-10-30T07:27:54.568Z,0.00
2023-10-30T07:28:54.561Z,0.00
2023-10-30T07:29:54.508Z,0.00
2023-10-30T07:30:54.537Z,0.00
2023-10-30T07:31:54.499Z,0.00
2023-10-30T07:32:54.481Z,0.00
2023-10-30T07:33:55.083Z,0.00
2023-10-30T07:34:54.444Z,0.00
2023-10-30T07:35:54.420Z,0.00
2023-10-30T07:36:54.437Z,0.00
2023-10-30T07:37:54.472Z,5.62
2023-10-30T07:38:54.406Z,5.62
2023-10-30T07:39:54.470Z,5.62
2023-10-30T07:40:54.369Z,5.62
2023-10-30T07:41:54.360Z,5.62
2023-10-30T07:42:54.880Z,5.62
2023-10-30T07:43:54.346Z,5.62
2023-10-30T07:44:54.347Z,5.62
2023-10-30T07:45:54.356Z,5.62
2023-10-30T07:46:54.394Z,5.62
2023-10-30T07:47:54.392Z,5.62
2023-10-30T07:48:54.431Z,5.62
2023-10-30T07:49:54.276Z,5.62
2023-10-30T07:50:54.268Z,11.25
2023-10-30T07:51:54.328Z,5.62
2023-10-30T07:52:54.260Z,5.62
2023-10-30T07:53:54.239Z,5.62
2023-10-30T07:54:54.353Z,5.62
2023-10-30T07:55:54.208Z,5.62
2023-10-30T07:56:54.235Z,5.62
2023-10-30T07:57:54.271Z,5.62
2023-10-30T07:58:54.180Z,5.62
2023-10-30T07:59:54.172Z,5.62
2023-10-30T08:00:58.710Z,5.62
2023-10-30T08:01:54.270Z,5.62
2023-10-30T08:02:54.229Z,5.62
2023-10-30T08:03:54.223Z,11.25
2023-10-30T08:04:55.165Z,11.25
2023-10-30T08:05:54.131Z,11.25
2023-10-30T08:06:54.176Z,11.25
2023-10-30T08:07:54.110Z,11.25
2023-10-30T08:08:54.062Z,11.25
2023-10-30T08:09:54.103Z,11.25
2023-10-30T08:10:54.099Z,11.25
2023-10-30T08:11:54.049Z,11.25
2023-10-30T08:12:54.044Z,11.25
2023-10-30T08:13:54.025Z,11.25
2023-10-30T08:14:54.034Z,11.25
2023-10-30T08:15:54.049Z,11.25
2023-10-30T08:16:54.049Z,11.25
2023-10-30T08:17:54.041Z,5.62
2023-10-30T08:18:53.989Z,5.62
2023-10-30T08:19:53.959Z,5.62
2023-10-30T08:20:55.286Z,5.62
2023-10-30T08:21:53.973Z,5.62
2023-10-30T08:22:53.990Z,5.62
2023-10-30T08:23:53.914Z,5.62
2023-10-30T08:24:53.944Z,5.62
2023-10-30T08:25:53.899Z,11.25
2023-10-30T08:26:53.883Z,11.25
2023-10-30T08:27:53.919Z,11.25
2023-10-30T08:28:53.899Z,11.25
2023-10-30T08:29:53.861Z,11.25
2023-10-30T08:30:53.925Z,11.25
2023-10-30T08:31:53.857Z,11.25
2023-10-30T08:32:53.838Z,11.25
2023-10-30T08:33:53.954Z,11.25
2023-10-30T08:34:53.825Z,11.25
2023-10-30T08:35:53.783Z,11.25
2023-10-30T08:36:53.811Z,11.25
2023-10-30T08:37:53.781Z,11.25
2023-10-30T08:38:55.601Z,11.25
2023-10-30T08:39:53.836Z,11.25
2023-10-30T08:40:53.737Z,11.25
2023-10-30T08:41:53.747Z,11.25
2023-10-30T08:42:53.796Z,11.25
2023-10-30T08:43:54.309Z,11.25
2023-10-30T08:44:53.774Z,11.25
2023-10-30T08:45:53.704Z,11.25
2023-10-30T08:46:53.732Z,11.25
2023-10-30T08:47:58.909Z,11.25
2023-10-30T08:48:53.711Z,11.25
2023-10-30T08:49:53.642Z,11.25
2023-10-30T08:50:53.632Z,11.25
2023-10-30T08:52:03.666Z,11.25
2023-10-30T08:52:53.638Z,11.25
2023-10-30T08:53:53.668Z,11.25
2023-10-30T08:54:53.621Z,16.88
2023-10-30T08:55:53.577Z,16.88
2023-10-30T08:56:58.334Z,16.88
2023-10-30T08:57:53.697Z,16.88
2023-10-30T08:58:53.585Z,22.50
2023-10-30T08:59:53.527Z,22.50
2023-10-30T09:00:53.545Z,22.50
2023-10-30T09:01:53.566Z,22.50
2023-10-30T09:02:53.568Z,22.50
2023-10-30T09:03:53.654Z,22.50
2023-10-30T09:04:53.632Z,28.12
2023-10-30T09:05:53.563Z,28.12
2023-10-30T09:06:53.578Z,33.75
2023-10-30T09:07:53.442Z,33.75
2023-10-30T09:08:53.437Z,33.75
2023-10-30T09:09:53.462Z,33.75
2023-10-30T09:10:53.413Z,28.12
2023-10-30T09:11:53.422Z,33.75
2023-10-30T09:12:53.474Z,33.75
2023-10-30T09:13:53.389Z,33.75
2023-10-30T09:14:53.370Z,33.75
2023-10-30T09:15:53.406Z,28.12
2023-10-30T09:16:53.370Z,33.75
2023-10-30T09:17:53.371Z,33.75
2023-10-30T09:18:53.369Z,33.75
2023-10-30T09:19:53.308Z,33.75
2023-10-30T09:20:53.339Z,39.38
2023-10-30T09:21:55.471Z,39.38
2023-10-30T09:22:53.283Z,45.00
2023-10-30T09:23:53.260Z,45.00
2023-10-30T09:24:53.281Z,39.38
2023-10-30T09:25:53.260Z,45.00
2023-10-30T09:26:53.241Z,39.38
2023-10-30T09:27:53.299Z,39.38
2023-10-30T09:28:53.222Z,39.38
2023-10-30T09:29:53.211Z,39.38
2023-10-30T09:30:53.245Z,45.00
2023-10-30T09:31:53.362Z,45.00
2023-10-30T09:32:53.321Z,45.00
2023-10-30T09:33:53.327Z,45.00
2023-10-30T09:34:53.157Z,45.00
2023-10-30T09:35:53.149Z,45.00
2023-10-30T09:36:53.181Z,45.00
2023-10-30T09:37:53.130Z,45.00
2023-10-30T09:38:53.149Z,45.00
2023-10-30T09:39:53.344Z,45.00
2023-10-30T09:40:53.143Z,50.62
2023-10-30T09:41:53.116Z,50.62
2023-10-30T09:42:53.295Z,50.62
2023-10-30T09:43:53.042Z,56.25
2023-10-30T09:44:53.057Z,56.25
2023-10-30T09:45:53.096Z,56.25
2023-10-30T09:46:53.016Z,61.88
2023-10-30T09:47:53.063Z,61.88
2023-10-30T09:48:53.027Z,61.88
2023-10-30T09:49:53.011Z,61.88
2023-10-30T09:50:53.076Z,61.88
2023-10-30T09:51:53.005Z,73.12
2023-10-30T09:52:52.971Z,67.50
2023-10-30T09:53:52.979Z,67.50
2023-10-30T09:54:53.015Z,67.50
2023-10-30T09:55:52.970Z,61.88
2023-10-30T09:56:52.932Z,56.25
2023-10-30T09:57:52.941Z,56.25
2023-10-30T09:58:52.927Z,56.25
2023-10-30T09:59:52.910Z,56.25
2023-10-30T10:00:52.981Z,56.25
2023-10-30T10:01:52.963Z,56.25
2023-10-30T10:02:53.024Z,61.88
2023-10-30T10:03:52.977Z,56.25
2023-10-30T10:04:52.942Z,56.25
2023-10-30T10:05:52.817Z,73.12
2023-10-30T10:06:52.819Z,73.12
2023-10-30T10:07:52.816Z,67.50
2023-10-30T10:08:52.801Z,67.50
2023-10-30T10:09:52.802Z,67.50
2023-10-30T10:10:52.767Z,61.88
2023-10-30T10:11:52.786Z,61.88
2023-10-30T10:12:52.883Z,61.88
2023-10-30T10:14:04.644Z,61.88
2023-10-30T10:14:52.739Z,61.88
2023-10-30T10:15:52.810Z,61.88
2023-10-30T10:16:52.770Z,67.50
2023-10-30T10:17:52.782Z,67.50
2023-10-30T10:18:52.729Z,67.50
2023-10-30T10:19:52.737Z,61.88
2023-10-30T10:20:52.794Z,61.88
2023-10-30T10:21:52.849Z,61.88
2023-10-30T10:22:52.668Z,67.50
2023-10-30T10:23:52.669Z,73.12
2023-10-30T10:24:52.710Z,90.00
2023-10-30T10:25:52.611Z,67.50
2023-10-30T10:26:52.627Z,67.50
2023-10-30T10:27:52.711Z,56.25
2023-10-30T10:28:52.650Z,61.88
2023-10-30T10:29:52.603Z,56.25
2023-10-30T10:30:52.598Z,56.25
2023-10-30T10:31:52.589Z,56.25
2023-10-30T10:32:52.608Z,61.88
2023-10-30T10:33:52.607Z,67.50
2023-10-30T10:34:52.842Z,73.12
2023-10-30T10:35:52.549Z,67.50
2023-10-30T10:36:52.662Z,73.12
2023-10-30T10:37:52.488Z,73.12
2023-10-30T10:38:52.481Z,67.50
2023-10-30T10:39:52.717Z,56.25
2023-10-30T10:40:52.480Z,56.25
2023-10-30T10:41:52.448Z,50.62
2023-10-30T10:42:52.521Z,61.88
2023-10-30T10:43:52.466Z,67.50
2023-10-30T10:44:52.413Z,61.88
2023-10-30T10:45:52.484Z,61.88
2023-10-30T10:46:52.451Z,67.50
2023-10-30T10:47:52.409Z,61.88
2023-10-30T10:48:52.401Z,78.75
2023-10-30T10:49:52.447Z,56.25
2023-10-30T10:50:52.362Z,61.88
2023-10-30T10:51:52.362Z,106.88
2023-10-30T10:52:52.327Z,67.50
2023-10-30T10:53:52.333Z,78.75
2023-10-30T10:54:52.360Z,50.62
2023-10-30T10:55:52.285Z,56.25
2023-10-30T10:56:52.344Z,56.25
2023-10-30T10:57:52.379Z,61.88
2023-10-30T10:58:52.269Z,50.62
2023-10-30T10:59:52.279Z,39.38
2023-10-30T11:00:52.277Z,45.00
2023-10-30T11:01:52.430Z,50.62
2023-10-30T11:02:52.315Z,56.25
2023-10-30T11:03:52.389Z,61.88
2023-10-30T11:04:52.211Z,73.12
2023-10-30T11:05:52.178Z,67.50
2023-10-30T11:06:52.232Z,67.50
2023-10-30T11:07:52.287Z,67.50
2023-10-30T11:08:52.233Z,84.38
2023-10-30T11:09:52.396Z,90.00
2023-10-30T11:10:52.188Z,106.88
2023-10-30T11:11:52.139Z,73.12
2023-10-30T11:12:52.176Z,118.12
2023-10-30T11:13:52.115Z,123.75
2023-10-30T11:14:52.088Z,118.12
2023-10-30T11:15:52.115Z,106.88
2023-10-30T11:16:52.177Z,101.25
2023-10-30T11:17:52.089Z,112.50
2023-10-30T11:18:52.143Z,95.62
2023-10-30T11:19:52.030Z,67.50
2023-10-30T11:20:52.026Z,106.88
2023-10-30T11:21:52.101Z,106.88
2023-10-30T11:22:52.073Z,67.50
2023-10-30T11:23:52.015Z,106.88
2023-10-30T11:24:52.078Z,101.25
2023-10-30T11:25:51.983Z,101.25
2023-10-30T11:26:51.956Z,95.62
2023-10-30T11:27:52.007Z,95.62
2023-10-30T11:28:51.997Z,95.62
2023-10-30T11:29:51.922Z,95.62
2023-10-30T11:30:51.941Z,95.62
2023-10-30T11:31:51.998Z,84.38
2023-10-30T11:32:52.479Z,95.62
2023-10-30T11:33:51.911Z,95.62
2023-10-30T11:34:51.948Z,95.62
2023-10-30T11:35:51.874Z,90.00
2023-10-30T11:36:51.959Z,50.62
2023-10-30T11:37:51.853Z,90.00
2023-10-30T11:38:51.837Z,61.88
2023-10-30T11:39:51.865Z,95.62
2023-10-30T11:40:51.811Z,61.88
2023-10-30T11:41:51.826Z,95.62
2023-10-30T11:42:51.812Z,50.62
2023-10-30T11:43:51.778Z,84.38
2023-10-30T11:44:51.766Z,78.75
2023-10-30T11:45:51.800Z,84.38
2023-10-30T11:46:52.055Z,90.00
2023-10-30T11:47:51.733Z,84.38
2023-10-30T11:48:51.783Z,84.38
2023-10-30T11:49:51.710Z,84.38
2023-10-30T11:50:51.813Z,45.00
2023-10-30T11:51:51.727Z,56.25
2023-10-30T11:52:51.689Z,78.75
2023-10-30T11:53:51.667Z,90.00
2023-10-30T11:54:52.156Z,73.12
2023-10-30T11:55:51.668Z,90.00
2023-10-30T11:56:51.678Z,78.75
2023-10-30T11:57:51.713Z,84.38
2023-10-30T11:58:51.615Z,95.62
2023-10-30T11:59:51.628Z,95.62
2023-10-30T12:00:51.733Z,73.12
2023-10-30T12:01:51.600Z,61.88
2023-10-30T12:02:51.601Z,84.38
2023-10-30T12:03:51.700Z,67.50
2023-10-30T12:04:51.867Z,73.12
2023-10-30T12:05:51.569Z,78.75
2023-10-30T12:06:51.570Z,61.88
2023-10-30T12:07:51.514Z,61.88
2023-10-30T12:08:51.526Z,84.38
2023-10-30T12:09:51.555Z,78.75
2023-10-30T12:10:51.517Z,78.75
2023-10-30T12:11:51.479Z,95.62
2023-10-30T12:12:51.507Z,101.25
2023-10-30T12:13:51.466Z,101.25
2023-10-30T12:14:51.564Z,101.25
2023-10-30T12:15:51.466Z,78.75
2023-10-30T12:16:51.545Z,101.25
2023-10-30T12:17:51.497Z,95.62
2023-10-30T12:18:51.452Z,95.62
2023-10-30T12:19:51.393Z,73.12
2023-10-30T12:20:51.382Z,95.62
2023-10-30T12:21:51.517Z,90.00
2023-10-30T12:22:51.369Z,101.25
2023-10-30T12:23:51.359Z,90.00
2023-10-30T12:24:51.666Z,84.38
2023-10-30T12:25:51.394Z,95.62
2023-10-30T12:26:51.325Z,84.38
2023-10-30T12:27:51.321Z,84.38
2023-10-30T12:28:51.348Z,84.38
2023-10-30T12:29:51.276Z,84.38
2023-10-30T12:30:51.385Z,78.75
2023-10-30T12:31:51.291Z,73.12
2023-10-30T12:32:51.314Z,73.12
2023-10-30T12:33:51.290Z,67.50
2023-10-30T12:34:53.482Z,67.50
2023-10-30T12:35:51.226Z,67.50
2023-10-30T12:36:51.282Z,67.50
2023-10-30T12:37:51.246Z,67.50
2023-10-30T12:38:51.180Z,67.50
2023-10-30T12:39:51.200Z,67.50
2023-10-30T12:40:51.315Z,61.88
2023-10-30T12:41:51.216Z,61.88
2023-10-30T12:42:51.200Z,56.25
2023-10-30T12:43:51.135Z,50.62
2023-10-30T12:44:51.130Z,50.62
2023-10-30T12:45:51.166Z,56.25
2023-10-30T12:46:51.161Z,45.00
2023-10-30T12:47:51.216Z,50.62
2023-10-30T12:48:51.119Z,50.62
2023-10-30T12:49:51.092Z,45.00
2023-10-30T12:50:51.090Z,45.00
2023-10-30T12:51:51.170Z,45.00
2023-10-30T12:52:51.042Z,45.00
2023-10-30T12:53:51.036Z,45.00
2023-10-30T12:54:51.130Z,45.00
2023-10-30T12:55:51.040Z,45.00
2023-10-30T12:56:51.029Z,50.62
2023-10-30T12:57:51.061Z,50.62
2023-10-30T12:58:50.979Z,50.62
2023-10-30T12:59:50.971Z,50.62
2023-10-30T13:02:51.039Z,50.62
2023-10-30T13:03:51.152Z,45.00
2023-10-30T13:04:51.228Z,45.00
2023-10-30T13:05:51.075Z,45.00
2023-10-30T13:06:50.928Z,50.62
2023-10-30T13:07:50.878Z,45.00
2023-10-30T13:08:50.860Z,45.00
2023-10-30T13:09:51.650Z,45.00